09:53
Airports
Links
Donate
Help keep this website running!
PayPal
Bitcoin
METAR
ENDU 180920Z VRB02KT 9999 FEW050 BKN140 M10/M11 Q0998 NOSIG RMK WIND 1100FT 10008KT WIND 2200FT 10017KT
Current Weather Conditions at ENDU
VFR 09:20:00 18-11-17
Altimeter:29.47 hg
Temp:-10.0°c 14°f
Dew point:-11.0°c 12°f
Wind:2 knots, 2.3 mph, 1 m/s,
Variable direction
Visibility:6.21 statute miles
14000(BKN) Broken
5000(FEW) A few
No significant weather changes expected within 2 hours.
Past METAR reports
VFR 08:50:00 18-11-17
Altimeter:29.47 hg
Temp:-10.0°c 14°f
Dew point:-11.0°c 12°f
Wind:2 knots, 2.3 mph, 1 m/s,
Variable direction
Visibility:6.21 statute miles
14000(BKN) Broken
5000(FEW) A few
No significant weather changes expected within 2 hours.
ENDU 180850Z VRB02KT 9999 FEW050 BKN140 M10/M11 Q0998 NOSIG RMK WIND 1100FT 11009KT WIND 2200FT 10016KT
VFR 08:20:00 18-11-17
Altimeter:29.47 hg
Temp:-10.0°c 14°f
Dew point:-12.0°c 10°f
Wind:2 knots, 2.3 mph, 1 m/s,
Variable direction
Visibility:6.21 statute miles
14000(BKN) Broken
5000(FEW) A few
No significant weather changes expected within 2 hours.
ENDU 180820Z VRB02KT 9999 FEW050 BKN140 M10/M12 Q0998 NOSIG RMK WIND 1100FT 11009KT WIND 2200FT 09014KT
VFR 07:50:00 18-11-17
Altimeter:29.44 hg
Temp:-10.0°c 14°f
Dew point:-12.0°c 10°f
Wind:2 knots, 2.3 mph, 1 m/s,
Variable direction
Visibility:6.21 statute miles
14000(BKN) Broken
5000(FEW) A few
No significant weather changes expected within 2 hours.
ENDU 180750Z VRB02KT 9999 FEW050 BKN140 M10/M12 Q0997 NOSIG RMK WIND 1100FT 09007KT WIND 2200FT 10016KT
VFR 07:20:00 18-11-17
Altimeter:29.44 hg
Temp:-11.0°c 12°f
Dew point:-12.0°c 10°f
Wind:1 knots, 1.2 mph, 1 m/s,
Variable direction
Visibility:6.21 statute miles
12000(BKN) Broken
4000(FEW) A few
No significant weather changes expected within 2 hours.
ENDU 180720Z VRB01KT 9999 FEW040 BKN120 M11/M12 Q0997 NOSIG RMK WIND 1100FT 10009KT WIND 2200FT 10015KT
VFR 06:50:00 18-11-17
Altimeter:29.41 hg
Temp:-11.0°c 12°f
Dew point:-12.0°c 10°f
Wind:3 knots, 3.5 mph, 2 m/s, from 260°
Visibility:6.21 statute miles
12000(SCT) Scattered
4000(FEW) A few
No significant weather changes expected within 2 hours.
ENDU 180650Z 26003KT 150V310 9999 FEW040 SCT120 M11/M12 Q0996 NOSIG RMK WIND 1100FT 11008KT WIND 2200FT 10016KT
VFR 06:20:00 18-11-17
Altimeter:29.41 hg
Temp:-11.0°c 12°f
Dew point:-13.0°cf
Wind:3 knots, 3.5 mph, 2 m/s,
Variable direction
Visibility:6.21 statute miles
12000(SCT) Scattered
4000(FEW) A few
No significant weather changes expected within 2 hours.
ENDU 180620Z VRB03KT 9999 FEW040 SCT120 M11/M13 Q0996 NOSIG RMK WIND 1100FT 11010KT WIND 2200FT 10012KT
TAF
TAF ENDU 1806/1906 12005KT 9999 FEW035 SCT050
Forecast at ENDU
06:00 18-11-17 to 06:00 19-11-17
Wind:5 Knots from 120°
Visibility:6.21 statute miles
3500FEW A few
5000SCT Scattered